sim
Sign-in with your pilot id or email,
or register
Callsign
Passwort

Schedule Details

Flight Number: EWG1979
Departure: Hamburg Airport (EDDH) at 20:10
Arrival: Munich Airport (EDDM) at 21:35
Route: Eurowings Passenger Schedule. Enter filed route here before submitting Pirep.

Weather Information
Getting current METAR information for EDDH 240220Z 14010KT CAVOK 15/10 Q0998 NOSIG
Getting current METAR information for EDDM 240220Z VRB02KT CAVOK 10/09 Q1009 NOSIG

Schedule Frequency

Route Map